createdAt,value
2022-12-18T00:03:42.040Z,1020.9
2022-12-18T00:08:45.361Z,1020.8
2022-12-18T00:13:41.662Z,1020.7
2022-12-18T00:18:41.054Z,1020.7
2022-12-18T00:23:40.902Z,1020.6
2022-12-18T00:33:40.406Z,1020.4
2022-12-18T00:38:41.661Z,1020.4
2022-12-18T00:43:39.704Z,1020.3
2022-12-18T00:48:39.057Z,1020.2
2022-12-18T00:53:39.150Z,1020.2
2022-12-18T00:58:38.455Z,1020.1
2022-12-18T01:03:38.601Z,1020.0
2022-12-18T01:08:37.958Z,1019.8
2022-12-18T01:13:37.906Z,1019.7
2022-12-18T01:18:39.595Z,1019.7
2022-12-18T01:23:37.491Z,1019.8
2022-12-18T01:28:36.810Z,1019.8
2022-12-18T01:33:36.828Z,1019.9
2022-12-18T01:43:36.480Z,1020.0
2022-12-18T01:48:37.773Z,1020.0
2022-12-18T01:53:35.703Z,1019.9
2022-12-18T01:58:35.126Z,1020.0
2022-12-18T02:03:34.963Z,1020.0
2022-12-18T02:08:34.646Z,1020.0
2022-12-18T02:18:34.125Z,1019.7
2022-12-18T02:23:34.398Z,1019.7
2022-12-18T02:28:33.592Z,1019.6
2022-12-18T02:29:51.672Z,1019.7
2022-12-18T02:38:33.081Z,1019.6
2022-12-18T02:39:50.579Z,1019.5
2022-12-18T02:43:37.365Z,1019.5
2022-12-18T02:48:32.650Z,1019.5
2022-12-18T02:53:32.413Z,1019.4
2022-12-18T02:58:32.127Z,1019.3
2022-12-18T03:03:31.893Z,1019.2
2022-12-18T03:08:31.596Z,1019.2
2022-12-18T03:13:31.301Z,1019.1
2022-12-18T03:18:31.047Z,1019.1
2022-12-18T03:23:30.828Z,1019.1
2022-12-18T03:28:30.552Z,1019.1
2022-12-18T03:33:30.492Z,1019.2
2022-12-18T03:38:31.262Z,1019.2
2022-12-18T03:43:29.942Z,1019.2
2022-12-18T03:48:29.649Z,1019.1
2022-12-18T03:53:29.352Z,1019.1
2022-12-18T03:58:29.155Z,1019.2
2022-12-18T04:03:39.731Z,1019.1
2022-12-18T04:08:29.083Z,1019.1
2022-12-18T04:13:28.598Z,1019.0
2022-12-18T04:18:28.264Z,1018.8
2022-12-18T04:23:28.095Z,1018.7
2022-12-18T04:28:27.827Z,1018.5
2022-12-18T04:33:27.584Z,1018.5
2022-12-18T04:38:27.381Z,1018.4
2022-12-18T04:43:27.222Z,1018.3
2022-12-18T04:48:26.988Z,1018.3
2022-12-18T04:53:26.689Z,1018.2
2022-12-18T04:58:26.834Z,1018.2
2022-12-18T05:03:26.308Z,1018.0
2022-12-18T05:08:26.070Z,1017.9
2022-12-18T05:13:25.862Z,1017.9
2022-12-18T05:18:25.569Z,1017.9
2022-12-18T05:23:25.646Z,1017.9
2022-12-18T05:33:24.977Z,1017.6
2022-12-18T05:38:24.816Z,1017.4
2022-12-18T05:43:24.579Z,1017.1
2022-12-18T05:48:24.387Z,1017.0
2022-12-18T05:53:24.124Z,1016.9
2022-12-18T06:08:23.625Z,1016.7
2022-12-18T06:13:23.459Z,1016.7
2022-12-18T06:18:23.256Z,1016.7
2022-12-18T06:23:23.078Z,1016.8
2022-12-18T06:28:26.912Z,1016.8
2022-12-18T06:33:22.756Z,1016.6
2022-12-18T06:38:22.586Z,1016.6
2022-12-18T06:43:22.368Z,1016.7
2022-12-18T06:48:22.224Z,1016.8
2022-12-18T06:53:22.034Z,1016.8
2022-12-18T06:58:21.965Z,1016.8
2022-12-18T07:03:23.641Z,1016.8
2022-12-18T07:08:21.417Z,1016.7
2022-12-18T07:13:21.206Z,1016.7
2022-12-18T07:18:21.021Z,1016.7
2022-12-18T07:23:20.819Z,1016.8
2022-12-18T07:28:20.736Z,1016.7
2022-12-18T07:33:20.521Z,1016.6
2022-12-18T07:38:20.380Z,1016.5
2022-12-18T07:43:20.242Z,1016.4
2022-12-18T07:48:20.070Z,1016.4
2022-12-18T07:53:20.150Z,1016.6
2022-12-18T07:58:19.768Z,1016.6
2022-12-18T08:03:19.657Z,1016.7
2022-12-18T08:13:19.238Z,1016.5
2022-12-18T08:18:19.103Z,1016.6
2022-12-18T08:23:18.957Z,1016.7
2022-12-18T08:28:18.809Z,1016.7
2022-12-18T08:33:20.638Z,1016.8
2022-12-18T08:38:18.519Z,1016.8
2022-12-18T08:43:18.341Z,1016.7
2022-12-18T08:48:22.197Z,1016.7
2022-12-18T08:53:18.290Z,1016.7
2022-12-18T08:58:17.850Z,1016.6
2022-12-18T09:08:17.514Z,1016.4
2022-12-18T09:13:19.292Z,1016.3
2022-12-18T09:18:27.475Z,1016.2
2022-12-18T09:23:17.016Z,1016.1
2022-12-18T09:28:16.790Z,1016.2
2022-12-18T09:33:16.629Z,1016.3
2022-12-18T09:38:16.461Z,1016.1
2022-12-18T09:43:16.371Z,1015.9
2022-12-18T09:48:16.195Z,1015.7
2022-12-18T09:53:16.006Z,1015.8
2022-12-18T09:58:15.879Z,1016.0
2022-12-18T10:03:15.875Z,1016.0
2022-12-18T10:08:15.500Z,1015.9
2022-12-18T10:13:15.380Z,1015.9
2022-12-18T10:18:21.590Z,1015.8
2022-12-18T10:23:15.058Z,1015.8
2022-12-18T10:28:14.869Z,1015.7
2022-12-18T10:33:14.750Z,1015.7
2022-12-18T10:38:14.609Z,1015.6
2022-12-18T10:48:14.572Z,1015.4
2022-12-18T10:53:14.360Z,1015.2
2022-12-18T10:58:13.982Z,1015.1
2022-12-18T11:03:14.199Z,1014.9
2022-12-18T11:08:13.790Z,1014.7
2022-12-18T11:13:13.862Z,1014.6
2022-12-18T11:18:13.415Z,1014.5
2022-12-18T11:23:13.288Z,1014.4
2022-12-18T11:28:13.274Z,1014.3
2022-12-18T11:33:13.053Z,1014.3
2022-12-18T11:38:12.943Z,1014.2
2022-12-18T11:43:12.779Z,1014.1
2022-12-18T11:48:12.686Z,1014.0
2022-12-18T11:53:13.839Z,1013.8
2022-12-18T11:58:12.373Z,1013.6
2022-12-18T12:08:12.162Z,1013.4
2022-12-18T12:13:12.068Z,1013.3
2022-12-18T12:18:11.923Z,1013.1
2022-12-18T12:23:11.841Z,1013.0
2022-12-18T12:28:11.724Z,1012.9
2022-12-18T12:33:11.556Z,1012.8
2022-12-18T12:38:11.462Z,1012.8
2022-12-18T12:43:11.375Z,1012.8
2022-12-18T12:48:11.259Z,1012.7
2022-12-18T12:53:13.132Z,1012.6
2022-12-18T12:58:11.004Z,1012.6
2022-12-18T13:03:10.900Z,1012.5
2022-12-18T13:08:10.876Z,1012.5
2022-12-18T13:13:11.033Z,1012.4
2022-12-18T13:18:10.681Z,1012.3
2022-12-18T13:23:10.638Z,1012.3
2022-12-18T13:28:11.015Z,1012.3
2022-12-18T13:33:10.483Z,1012.2
2022-12-18T13:38:10.363Z,1012.1
2022-12-18T13:43:10.289Z,1012.0
2022-12-18T13:48:10.280Z,1011.9
2022-12-18T13:53:14.177Z,1011.9
2022-12-18T13:58:12.143Z,1011.7
2022-12-18T14:08:09.993Z,1011.5
2022-12-18T14:13:09.947Z,1011.4
2022-12-18T14:18:09.831Z,1011.2
2022-12-18T14:23:09.742Z,1011.2
2022-12-18T14:28:09.675Z,1011.1
2022-12-18T14:33:09.605Z,1011.1
2022-12-18T14:38:09.563Z,1011.0
2022-12-18T14:43:09.473Z,1011.0
2022-12-18T14:48:09.498Z,1011.0
2022-12-18T14:53:09.388Z,1010.9
2022-12-18T14:58:09.470Z,1011.0
2022-12-18T15:03:09.429Z,1010.8
2022-12-18T15:08:09.260Z,1010.9
2022-12-18T15:13:09.156Z,1010.9
2022-12-18T15:18:09.779Z,1010.9
2022-12-18T15:23:09.070Z,1010.9
2022-12-18T15:28:09.065Z,1010.7
2022-12-18T15:33:08.997Z,1010.7
2022-12-18T15:38:08.860Z,1010.7
2022-12-18T15:43:08.815Z,1010.5
2022-12-18T15:48:08.752Z,1010.4
2022-12-18T15:53:08.772Z,1010.4
2022-12-18T15:58:08.736Z,1010.3
2022-12-18T16:03:08.760Z,1010.2
2022-12-18T16:08:08.600Z,1010.2
2022-12-18T16:13:08.523Z,1010.2
2022-12-18T16:18:08.548Z,1010.2
2022-12-18T16:28:08.406Z,1010.0
2022-12-18T16:33:08.315Z,1009.9
2022-12-18T16:38:08.331Z,1010.0
2022-12-18T16:43:08.253Z,1009.9
2022-12-18T16:48:08.176Z,1009.9
2022-12-18T16:53:08.122Z,1009.8
2022-12-18T16:58:10.080Z,1009.7
2022-12-18T17:03:08.133Z,1009.7
2022-12-18T17:08:07.981Z,1009.6
2022-12-18T17:13:07.912Z,1009.6
2022-12-18T17:18:07.895Z,1009.5
2022-12-18T17:23:07.853Z,1009.4
2022-12-18T17:28:07.863Z,1009.4
2022-12-18T17:33:07.767Z,1009.3
2022-12-18T17:38:07.748Z,1009.3
2022-12-18T17:43:07.712Z,1009.3
2022-12-18T17:53:07.675Z,1009.0
2022-12-18T17:58:07.618Z,1009.0
2022-12-18T18:03:07.828Z,1009.1
2022-12-18T18:08:07.538Z,1008.9
2022-12-18T18:13:11.918Z,1008.9
2022-12-18T18:18:07.399Z,1008.9
2022-12-18T18:23:07.338Z,1008.7
2022-12-18T18:28:07.293Z,1008.7
2022-12-18T18:33:11.845Z,1008.7
2022-12-18T18:38:07.205Z,1008.7
2022-12-18T18:43:07.190Z,1008.6
2022-12-18T18:48:07.182Z,1008.5
2022-12-18T18:53:07.123Z,1008.5
2022-12-18T18:58:07.101Z,1008.4
2022-12-18T19:03:07.292Z,1008.3
2022-12-18T19:08:07.089Z,1008.3
2022-12-18T19:13:07.010Z,1008.2
2022-12-18T19:18:09.486Z,1008.2
2022-12-18T19:23:06.951Z,1008.3
2022-12-18T19:33:26.800Z,1008.2
2022-12-18T19:38:06.937Z,1008.2
2022-12-18T19:43:06.915Z,1008.2
2022-12-18T19:48:06.962Z,1008.0
2022-12-18T19:53:06.928Z,1008.0
2022-12-18T19:58:07.041Z,1007.8
2022-12-18T20:03:18.258Z,1008.0
2022-12-18T20:08:06.989Z,1007.8
2022-12-18T20:13:07.020Z,1007.9
2022-12-18T20:18:07.079Z,1007.8
2022-12-18T20:23:07.099Z,1007.6
2022-12-18T20:28:07.113Z,1007.7
2022-12-18T20:33:07.130Z,1007.6
2022-12-18T20:38:07.218Z,1007.6
2022-12-18T20:43:07.202Z,1007.6
2022-12-18T20:48:07.230Z,1007.6
2022-12-18T20:53:07.214Z,1007.4
2022-12-18T20:58:07.376Z,1007.4
2022-12-18T21:03:07.482Z,1007.3
2022-12-18T21:08:07.263Z,1007.3
2022-12-18T21:13:07.314Z,1007.2
2022-12-18T21:18:07.283Z,1007.3
2022-12-18T21:23:16.589Z,1007.3
2022-12-18T21:28:07.477Z,1007.2
2022-12-18T21:33:07.336Z,1007.3
2022-12-18T21:38:07.388Z,1007.3
2022-12-18T21:43:07.448Z,1007.4
2022-12-18T21:48:09.450Z,1007.5
2022-12-18T21:53:07.495Z,1007.4
2022-12-18T22:03:18.429Z,1007.5
2022-12-18T22:08:07.597Z,1007.3
2022-12-18T22:13:07.690Z,1007.2
2022-12-18T22:18:07.641Z,1007.3
2022-12-18T22:23:07.677Z,1007.1
2022-12-18T22:28:07.736Z,1007.1
2022-12-18T22:33:07.817Z,1007.2
2022-12-18T22:38:09.288Z,1007.1
2022-12-18T22:43:07.764Z,1007.3
2022-12-18T22:53:07.831Z,1007.2
2022-12-18T23:03:08.323Z,1006.8
2022-12-18T23:08:07.891Z,1006.9
2022-12-18T23:18:07.928Z,1006.9
2022-12-18T23:23:09.926Z,1006.7
2022-12-18T23:28:07.986Z,1006.8
2022-12-18T23:33:07.937Z,1006.8
2022-12-18T23:38:07.937Z,1006.7
2022-12-18T23:43:10.118Z,1006.7
2022-12-18T23:48:08.054Z,1006.6
2022-12-18T23:53:08.029Z,1006.7
2022-12-18T23:58:08.113Z,1006.6
